sensor_id;sensor_type;location;lat;lon;timestamp;temperature;humidity
28761;DHT22;15917;50.014;8.352;2023-05-16T00:01:49;14.40;99.90
28761;DHT22;15917;50.014;8.352;2023-05-16T00:04:15;14.40;99.90
28761;DHT22;15917;50.014;8.352;2023-05-16T00:06:42;14.30;99.90
28761;DHT22;15917;50.014;8.352;2023-05-16T00:09:07;14.30;99.90
28761;DHT22;15917;50.014;8.352;2023-05-16T00:11:33;14.30;99.90
28761;DHT22;15917;50.014;8.352;2023-05-16T00:13:58;14.20;99.90
28761;DHT22;15917;50.014;8.352;2023-05-16T00:16:25;14.20;99.90
28761;DHT22;15917;50.014;8.352;2023-05-16T00:18:53;14.20;99.90
28761;DHT22;15917;50.014;8.352;2023-05-16T00:21:19;14.20;99.90
28761;DHT22;15917;50.014;8.352;2023-05-16T00:23:45;14.10;99.90
28761;DHT22;15917;50.014;8.352;2023-05-16T00:26:10;14.10;99.90
28761;DHT22;15917;50.014;8.352;2023-05-16T00:28:39;14.10;99.90
28761;DHT22;15917;50.014;8.352;2023-05-16T00:31:05;14.10;99.90
28761;DHT22;15917;50.014;8.352;2023-05-16T00:33:30;14.10;99.90
28761;DHT22;15917;50.014;8.352;2023-05-16T00:35:57;14.10;99.90
28761;DHT22;15917;50.014;8.352;2023-05-16T00:38:23;14.20;99.90
28761;DHT22;15917;50.014;8.352;2023-05-16T00:40:49;14.10;99.90
28761;DHT22;15917;50.014;8.352;2023-05-16T00:43:15;14.10;99.90
28761;DHT22;15917;50.014;8.352;2023-05-16T00:45:40;14.10;99.90
28761;DHT22;15917;50.014;8.352;2023-05-16T00:48:06;14.10;99.90
28761;DHT22;15917;50.014;8.352;2023-05-16T00:50:35;14.10;99.90
28761;DHT22;15917;50.014;8.352;2023-05-16T00:53:01;14.10;99.90
28761;DHT22;15917;50.014;8.352;2023-05-16T00:55:27;14.10;99.90
28761;DHT22;15917;50.014;8.352;2023-05-16T00:57:52;14.10;99.90
28761;DHT22;15917;50.014;8.352;2023-05-16T01:00:19;14.10;99.90
28761;DHT22;15917;50.014;8.352;2023-05-16T01:02:45;14.10;99.90
28761;DHT22;15917;50.014;8.352;2023-05-16T01:05:11;14.10;99.90
28761;DHT22;15917;50.014;8.352;2023-05-16T01:07:38;14.10;99.90
28761;DHT22;15917;50.014;8.352;2023-05-16T01:10:07;14.10;99.90
28761;DHT22;15917;50.014;8.352;2023-05-16T01:12:44;14.10;99.90
28761;DHT22;15917;50.014;8.352;2023-05-16T01:15:29;14.10;99.90
28761;DHT22;15917;50.014;8.352;2023-05-16T01:18:05;14.10;99.90
28761;DHT22;15917;50.014;8.352;2023-05-16T01:20:48;14.00;99.90
28761;DHT22;15917;50.014;8.352;2023-05-16T01:26:25;14.00;99.90
28761;DHT22;15917;50.014;8.352;2023-05-16T01:28:51;14.00;99.90
28761;DHT22;15917;50.014;8.352;2023-05-16T01:31:18;14.00;99.90
28761;DHT22;15917;50.014;8.352;2023-05-16T01:33:44;14.00;99.90
28761;DHT22;15917;50.014;8.352;2023-05-16T01:36:24;13.90;99.90
28761;DHT22;15917;50.014;8.352;2023-05-16T01:39:19;13.90;99.90
28761;DHT22;15917;50.014;8.352;2023-05-16T01:44:22;13.90;99.90
28761;DHT22;15917;50.014;8.352;2023-05-16T01:46:55;13.80;99.90
28761;DHT22;15917;50.014;8.352;2023-05-16T01:49:34;13.80;99.90
28761;DHT22;15917;50.014;8.352;2023-05-16T01:52:07;13.80;99.90
28761;DHT22;15917;50.014;8.352;2023-05-16T01:54:36;13.70;99.90
28761;DHT22;15917;50.014;8.352;2023-05-16T01:57:03;13.70;99.90
28761;DHT22;15917;50.014;8.352;2023-05-16T01:59:30;13.70;99.90
28761;DHT22;15917;50.014;8.352;2023-05-16T02:01:56;13.70;99.90
28761;DHT22;15917;50.014;8.352;2023-05-16T02:04:22;13.60;99.90
28761;DHT22;15917;50.014;8.352;2023-05-16T02:06:49;13.50;99.90
28761;DHT22;15917;50.014;8.352;2023-05-16T02:09:15;13.50;99.90
28761;DHT22;15917;50.014;8.352;2023-05-16T02:11:41;13.60;99.90
28761;DHT22;15917;50.014;8.352;2023-05-16T02:14:06;13.60;99.90
28761;DHT22;15917;50.014;8.352;2023-05-16T02:16:33;13.50;99.90
28761;DHT22;15917;50.014;8.352;2023-05-16T02:18:58;13.50;99.90
28761;DHT22;15917;50.014;8.352;2023-05-16T02:21:24;13.40;99.90
28761;DHT22;15917;50.014;8.352;2023-05-16T02:23:50;13.40;99.90
28761;DHT22;15917;50.014;8.352;2023-05-16T02:26:15;13.40;99.90
28761;DHT22;15917;50.014;8.352;2023-05-16T02:28:41;13.40;99.90
28761;DHT22;15917;50.014;8.352;2023-05-16T02:31:06;13.40;99.90
28761;DHT22;15917;50.014;8.352;2023-05-16T02:33:32;13.40;99.90
28761;DHT22;15917;50.014;8.352;2023-05-16T02:35:59;13.20;99.90
28761;DHT22;15917;50.014;8.352;2023-05-16T02:38:25;13.20;99.90
28761;DHT22;15917;50.014;8.352;2023-05-16T02:40:50;13.20;99.90
28761;DHT22;15917;50.014;8.352;2023-05-16T02:47:03;13.20;99.90
28761;DHT22;15917;50.014;8.352;2023-05-16T02:49:29;13.30;99.90
28761;DHT22;15917;50.014;8.352;2023-05-16T02:51:54;13.30;99.90
28761;DHT22;15917;50.014;8.352;2023-05-16T02:54:20;13.30;99.90
28761;DHT22;15917;50.014;8.352;2023-05-16T02:56:46;13.20;99.90
28761;DHT22;15917;50.014;8.352;2023-05-16T02:59:12;13.30;99.90
28761;DHT22;15917;50.014;8.352;2023-05-16T03:01:37;13.30;99.90
28761;DHT22;15917;50.014;8.352;2023-05-16T03:04:04;13.30;99.90
28761;DHT22;15917;50.014;8.352;2023-05-16T03:06:30;13.30;99.90
28761;DHT22;15917;50.014;8.352;2023-05-16T03:08:58;13.30;99.90
28761;DHT22;15917;50.014;8.352;2023-05-16T03:11:25;13.40;99.90
28761;DHT22;15917;50.014;8.352;2023-05-16T03:13:51;13.30;99.90
28761;DHT22;15917;50.014;8.352;2023-05-16T03:16:16;13.30;99.90
28761;DHT22;15917;50.014;8.352;2023-05-16T03:18:42;13.30;99.90
28761;DHT22;15917;50.014;8.352;2023-05-16T03:21:08;13.40;99.90
28761;DHT22;15917;50.014;8.352;2023-05-16T03:23:33;13.40;99.90
28761;DHT22;15917;50.014;8.352;2023-05-16T03:25:59;13.40;99.90
28761;DHT22;15917;50.014;8.352;2023-05-16T03:28:25;13.40;99.90
28761;DHT22;15917;50.014;8.352;2023-05-16T03:30:53;13.40;99.90
28761;DHT22;15917;50.014;8.352;2023-05-16T03:33:19;13.40;99.90
28761;DHT22;15917;50.014;8.352;2023-05-16T03:35:45;13.40;99.90
28761;DHT22;15917;50.014;8.352;2023-05-16T03:38:11;13.40;99.90
28761;DHT22;15917;50.014;8.352;2023-05-16T03:40:37;13.40;99.90
28761;DHT22;15917;50.014;8.352;2023-05-16T03:43:03;13.30;99.90
28761;DHT22;15917;50.014;8.352;2023-05-16T03:45:31;13.30;99.90
28761;DHT22;15917;50.014;8.352;2023-05-16T03:47:57;13.20;99.90
28761;DHT22;15917;50.014;8.352;2023-05-16T03:50:23;13.10;99.90
28761;DHT22;15917;50.014;8.352;2023-05-16T03:52:48;13.10;99.90
28761;DHT22;15917;50.014;8.352;2023-05-16T03:55:14;13.10;99.90
28761;DHT22;15917;50.014;8.352;2023-05-16T03:57:41;13.10;99.90
28761;DHT22;15917;50.014;8.352;2023-05-16T04:00:08;13.10;99.90
28761;DHT22;15917;50.014;8.352;2023-05-16T04:02:39;13.10;99.90
28761;DHT22;15917;50.014;8.352;2023-05-16T04:05:09;13.20;99.90
28761;DHT22;15917;50.014;8.352;2023-05-16T04:07:35;13.10;99.90
28761;DHT22;15917;50.014;8.352;2023-05-16T04:10:01;13.30;99.90
28761;DHT22;15917;50.014;8.352;2023-05-16T04:12:27;13.30;99.90
28761;DHT22;15917;50.014;8.352;2023-05-16T04:14:52;13.30;99.90
28761;DHT22;15917;50.014;8.352;2023-05-16T04:17:18;13.10;99.90
28761;DHT22;15917;50.014;8.352;2023-05-16T04:19:44;13.10;99.90
28761;DHT22;15917;50.014;8.352;2023-05-16T04:22:09;13.10;99.90
28761;DHT22;15917;50.014;8.352;2023-05-16T04:24:35;13.10;99.90
28761;DHT22;15917;50.014;8.352;2023-05-16T04:27:01;13.10;99.90
28761;DHT22;15917;50.014;8.352;2023-05-16T04:29:26;13.00;99.90
28761;DHT22;15917;50.014;8.352;2023-05-16T04:31:52;13.00;99.90
28761;DHT22;15917;50.014;8.352;2023-05-16T04:34:18;13.10;99.90
28761;DHT22;15917;50.014;8.352;2023-05-16T04:36:43;13.10;99.90
28761;DHT22;15917;50.014;8.352;2023-05-16T04:39:09;13.10;99.90
28761;DHT22;15917;50.014;8.352;2023-05-16T04:41:35;13.20;99.90
28761;DHT22;15917;50.014;8.352;2023-05-16T04:44:03;13.20;99.90
28761;DHT22;15917;50.014;8.352;2023-05-16T04:46:29;13.20;99.90
28761;DHT22;15917;50.014;8.352;2023-05-16T04:48:55;13.20;99.90
28761;DHT22;15917;50.014;8.352;2023-05-16T04:51:21;13.20;99.90
28761;DHT22;15917;50.014;8.352;2023-05-16T04:53:47;13.30;99.90
28761;DHT22;15917;50.014;8.352;2023-05-16T04:56:13;13.30;99.90
28761;DHT22;15917;50.014;8.352;2023-05-16T04:58:38;13.30;99.90
28761;DHT22;15917;50.014;8.352;2023-05-16T05:01:04;13.20;99.90
28761;DHT22;15917;50.014;8.352;2023-05-16T05:03:29;13.30;99.90
28761;DHT22;15917;50.014;8.352;2023-05-16T05:05:55;13.30;99.90
28761;DHT22;15917;50.014;8.352;2023-05-16T05:08:21;13.30;99.90
28761;DHT22;15917;50.014;8.352;2023-05-16T05:10:47;13.30;99.90
28761;DHT22;15917;50.014;8.352;2023-05-16T05:13:12;13.20;99.90
28761;DHT22;15917;50.014;8.352;2023-05-16T05:15:38;13.20;99.90
28761;DHT22;15917;50.014;8.352;2023-05-16T05:18:04;13.20;99.90
28761;DHT22;15917;50.014;8.352;2023-05-16T05:20:29;13.20;99.90
28761;DHT22;15917;50.014;8.352;2023-05-16T05:22:55;13.30;99.90
28761;DHT22;15917;50.014;8.352;2023-05-16T05:25:21;13.30;99.90
28761;DHT22;15917;50.014;8.352;2023-05-16T05:27:47;13.20;99.90
28761;DHT22;15917;50.014;8.352;2023-05-16T05:30:12;13.20;99.90
28761;DHT22;15917;50.014;8.352;2023-05-16T05:32:38;13.20;99.90
28761;DHT22;15917;50.014;8.352;2023-05-16T05:35:04;13.30;99.90
28761;DHT22;15917;50.014;8.352;2023-05-16T05:37:30;13.30;99.90
28761;DHT22;15917;50.014;8.352;2023-05-16T05:39:56;13.20;99.90
28761;DHT22;15917;50.014;8.352;2023-05-16T05:42:22;13.20;99.90
28761;DHT22;15917;50.014;8.352;2023-05-16T05:44:47;13.30;99.90
28761;DHT22;15917;50.014;8.352;2023-05-16T05:47:13;13.30;99.90
28761;DHT22;15917;50.014;8.352;2023-05-16T05:49:39;13.40;99.90
28761;DHT22;15917;50.014;8.352;2023-05-16T05:52:05;13.40;99.90
28761;DHT22;15917;50.014;8.352;2023-05-16T05:54:31;13.40;99.90
28761;DHT22;15917;50.014;8.352;2023-05-16T05:56:57;13.40;99.90
28761;DHT22;15917;50.014;8.352;2023-05-16T05:59:23;13.40;99.90
28761;DHT22;15917;50.014;8.352;2023-05-16T06:01:49;13.30;99.90
28761;DHT22;15917;50.014;8.352;2023-05-16T06:04:20;13.30;99.90
28761;DHT22;15917;50.014;8.352;2023-05-16T06:06:45;13.20;99.90
28761;DHT22;15917;50.014;8.352;2023-05-16T06:09:11;13.60;99.90
28761;DHT22;15917;50.014;8.352;2023-05-16T06:11:38;13.60;99.90
28761;DHT22;15917;50.014;8.352;2023-05-16T06:14:04;13.60;99.90
28761;DHT22;15917;50.014;8.352;2023-05-16T06:16:29;13.60;99.90
28761;DHT22;15917;50.014;8.352;2023-05-16T06:18:55;13.30;99.90
28761;DHT22;15917;50.014;8.352;2023-05-16T06:21:21;13.10;99.90
28761;DHT22;15917;50.014;8.352;2023-05-16T06:23:46;13.00;99.90
28761;DHT22;15917;50.014;8.352;2023-05-16T06:26:12;12.80;99.90
28761;DHT22;15917;50.014;8.352;2023-05-16T06:28:38;12.70;99.90
28761;DHT22;15917;50.014;8.352;2023-05-16T06:31:03;12.70;99.90
28761;DHT22;15917;50.014;8.352;2023-05-16T06:33:29;12.60;99.90
28761;DHT22;15917;50.014;8.352;2023-05-16T06:35:55;12.60;99.90
28761;DHT22;15917;50.014;8.352;2023-05-16T06:38:21;12.60;99.90
28761;DHT22;15917;50.014;8.352;2023-05-16T06:40:46;12.60;99.90
28761;DHT22;15917;50.014;8.352;2023-05-16T06:43:12;12.60;99.90
28761;DHT22;15917;50.014;8.352;2023-05-16T06:45:38;12.60;99.90
28761;DHT22;15917;50.014;8.352;2023-05-16T06:48:06;12.60;99.90
28761;DHT22;15917;50.014;8.352;2023-05-16T06:50:32;12.60;99.90
28761;DHT22;15917;50.014;8.352;2023-05-16T06:53:00;12.60;99.90
28761;DHT22;15917;50.014;8.352;2023-05-16T06:55:25;12.60;99.90
28761;DHT22;15917;50.014;8.352;2023-05-16T06:57:51;12.50;99.90
28761;DHT22;15917;50.014;8.352;2023-05-16T07:00:17;12.50;99.90
28761;DHT22;15917;50.014;8.352;2023-05-16T07:02:43;12.50;99.90
28761;DHT22;15917;50.014;8.352;2023-05-16T07:05:08;12.50;99.90
28761;DHT22;15917;50.014;8.352;2023-05-16T07:07:34;12.40;99.90
28761;DHT22;15917;50.014;8.352;2023-05-16T07:10:00;12.40;99.90
28761;DHT22;15917;50.014;8.352;2023-05-16T07:12:26;12.30;99.90
28761;DHT22;15917;50.014;8.352;2023-05-16T07:14:51;12.30;99.90
28761;DHT22;15917;50.014;8.352;2023-05-16T07:17:17;12.40;99.90
28761;DHT22;15917;50.014;8.352;2023-05-16T07:19:42;12.40;99.90
28761;DHT22;15917;50.014;8.352;2023-05-16T07:22:08;12.40;99.90
28761;DHT22;15917;50.014;8.352;2023-05-16T07:24:33;12.40;99.90
28761;DHT22;15917;50.014;8.352;2023-05-16T07:27:00;12.30;99.90
28761;DHT22;15917;50.014;8.352;2023-05-16T07:29:26;12.40;99.90
28761;DHT22;15917;50.014;8.352;2023-05-16T07:31:51;12.30;99.90
28761;DHT22;15917;50.014;8.352;2023-05-16T07:34:17;12.20;99.90
28761;DHT22;15917;50.014;8.352;2023-05-16T07:36:43;12.10;99.90
28761;DHT22;15917;50.014;8.352;2023-05-16T07:39:08;12.10;99.90
28761;DHT22;15917;50.014;8.352;2023-05-16T07:41:34;12.10;99.90
28761;DHT22;15917;50.014;8.352;2023-05-16T07:44:00;12.00;99.90
28761;DHT22;15917;50.014;8.352;2023-05-16T07:46:25;12.00;99.90
28761;DHT22;15917;50.014;8.352;2023-05-16T07:48:51;12.00;99.90
28761;DHT22;15917;50.014;8.352;2023-05-16T07:51:17;12.00;99.90
28761;DHT22;15917;50.014;8.352;2023-05-16T07:53:42;12.00;99.90
28761;DHT22;15917;50.014;8.352;2023-05-16T07:56:08;12.10;99.90
28761;DHT22;15917;50.014;8.352;2023-05-16T07:58:34;12.00;99.90
28761;DHT22;15917;50.014;8.352;2023-05-16T08:00:59;12.00;99.90
28761;DHT22;15917;50.014;8.352;2023-05-16T08:03:25;11.90;99.90
28761;DHT22;15917;50.014;8.352;2023-05-16T08:05:51;11.80;99.90
28761;DHT22;15917;50.014;8.352;2023-05-16T08:08:17;11.90;99.90
28761;DHT22;15917;50.014;8.352;2023-05-16T08:10:43;11.90;99.90
28761;DHT22;15917;50.014;8.352;2023-05-16T08:13:08;11.90;99.90
28761;DHT22;15917;50.014;8.352;2023-05-16T08:15:34;11.90;99.90
28761;DHT22;15917;50.014;8.352;2023-05-16T08:18:00;11.70;99.90
28761;DHT22;15917;50.014;8.352;2023-05-16T08:20:26;11.70;99.90
28761;DHT22;15917;50.014;8.352;2023-05-16T08:22:53;11.70;99.90
28761;DHT22;15917;50.014;8.352;2023-05-16T08:25:18;11.70;99.90
28761;DHT22;15917;50.014;8.352;2023-05-16T08:27:45;11.70;99.90
28761;DHT22;15917;50.014;8.352;2023-05-16T08:30:11;11.70;99.90
28761;DHT22;15917;50.014;8.352;2023-05-16T08:32:37;11.60;99.90
28761;DHT22;15917;50.014;8.352;2023-05-16T08:35:03;11.60;99.90
28761;DHT22;15917;50.014;8.352;2023-05-16T08:37:29;11.60;99.90
28761;DHT22;15917;50.014;8.352;2023-05-16T08:39:55;11.70;99.90
28761;DHT22;15917;50.014;8.352;2023-05-16T08:42:20;11.70;99.90
28761;DHT22;15917;50.014;8.352;2023-05-16T08:44:46;11.70;99.90
28761;DHT22;15917;50.014;8.352;2023-05-16T08:47:17;11.70;99.90
28761;DHT22;15917;50.014;8.352;2023-05-16T08:49:46;11.80;99.90
28761;DHT22;15917;50.014;8.352;2023-05-16T08:52:13;11.90;99.90
28761;DHT22;15917;50.014;8.352;2023-05-16T08:54:42;12.00;99.90
28761;DHT22;15917;50.014;8.352;2023-05-16T08:57:08;12.00;99.90
28761;DHT22;15917;50.014;8.352;2023-05-16T08:59:34;12.00;99.90
28761;DHT22;15917;50.014;8.352;2023-05-16T09:02:00;11.90;99.90
28761;DHT22;15917;50.014;8.352;2023-05-16T09:04:26;11.90;99.90
28761;DHT22;15917;50.014;8.352;2023-05-16T09:06:52;11.90;99.90
28761;DHT22;15917;50.014;8.352;2023-05-16T09:09:17;11.90;99.90
28761;DHT22;15917;50.014;8.352;2023-05-16T09:11:44;11.90;99.90
28761;DHT22;15917;50.014;8.352;2023-05-16T09:14:10;11.90;99.90
28761;DHT22;15917;50.014;8.352;2023-05-16T09:16:36;11.90;99.90
28761;DHT22;15917;50.014;8.352;2023-05-16T09:19:03;11.90;99.90
28761;DHT22;15917;50.014;8.352;2023-05-16T09:21:31;11.90;99.90
28761;DHT22;15917;50.014;8.352;2023-05-16T09:24:04;11.80;99.90
28761;DHT22;15917;50.014;8.352;2023-05-16T09:26:32;11.80;99.90
28761;DHT22;15917;50.014;8.352;2023-05-16T09:28:58;11.80;99.90
28761;DHT22;15917;50.014;8.352;2023-05-16T09:31:25;11.70;99.90
28761;DHT22;15917;50.014;8.352;2023-05-16T09:33:52;11.80;99.90
28761;DHT22;15917;50.014;8.352;2023-05-16T09:36:18;11.80;99.90
28761;DHT22;15917;50.014;8.352;2023-05-16T09:38:44;11.90;99.90
28761;DHT22;15917;50.014;8.352;2023-05-16T09:41:10;12.00;99.90
28761;DHT22;15917;50.014;8.352;2023-05-16T09:43:38;12.00;99.90
28761;DHT22;15917;50.014;8.352;2023-05-16T09:46:04;11.90;99.90
28761;DHT22;15917;50.014;8.352;2023-05-16T09:48:32;12.00;99.90
28761;DHT22;15917;50.014;8.352;2023-05-16T09:50:58;12.00;99.90
28761;DHT22;15917;50.014;8.352;2023-05-16T09:53:32;12.00;99.90
28761;DHT22;15917;50.014;8.352;2023-05-16T09:56:04;12.00;99.90
28761;DHT22;15917;50.014;8.352;2023-05-16T09:58:33;12.10;99.90
28761;DHT22;15917;50.014;8.352;2023-05-16T10:00:59;12.20;99.90
28761;DHT22;15917;50.014;8.352;2023-05-16T10:03:26;12.20;99.90
28761;DHT22;15917;50.014;8.352;2023-05-16T10:05:53;12.10;99.90
28761;DHT22;15917;50.014;8.352;2023-05-16T10:08:24;12.10;99.90
28761;DHT22;15917;50.014;8.352;2023-05-16T10:10:52;12.10;99.90
28761;DHT22;15917;50.014;8.352;2023-05-16T10:13:22;12.30;99.90
28761;DHT22;15917;50.014;8.352;2023-05-16T10:15:49;12.30;99.90
28761;DHT22;15917;50.014;8.352;2023-05-16T10:18:17;12.40;99.90
28761;DHT22;15917;50.014;8.352;2023-05-16T10:20:45;12.40;99.90
28761;DHT22;15917;50.014;8.352;2023-05-16T10:23:17;12.60;99.90
28761;DHT22;15917;50.014;8.352;2023-05-16T10:25:44;12.70;99.90
28761;DHT22;15917;50.014;8.352;2023-05-16T10:28:11;12.80;99.90
28761;DHT22;15917;50.014;8.352;2023-05-16T10:30:40;12.90;99.90
28761;DHT22;15917;50.014;8.352;2023-05-16T10:33:06;12.90;99.90
28761;DHT22;15917;50.014;8.352;2023-05-16T10:35:33;13.00;99.90
28761;DHT22;15917;50.014;8.352;2023-05-16T10:37:59;13.10;99.90
28761;DHT22;15917;50.014;8.352;2023-05-16T10:40:26;13.20;99.90
28761;DHT22;15917;50.014;8.352;2023-05-16T10:42:58;13.20;99.90
28761;DHT22;15917;50.014;8.352;2023-05-16T10:45:24;13.10;99.90
28761;DHT22;15917;50.014;8.352;2023-05-16T10:47:54;13.10;99.90
28761;DHT22;15917;50.014;8.352;2023-05-16T10:50:40;13.20;99.90
28761;DHT22;15917;50.014;8.352;2023-05-16T11:01:27;13.10;99.90
28761;DHT22;15917;50.014;8.352;2023-05-16T11:14:06;13.10;99.90
28761;DHT22;15917;50.014;8.352;2023-05-16T11:16:33;13.10;99.90
28761;DHT22;15917;50.014;8.352;2023-05-16T11:19:06;13.10;99.90
28761;DHT22;15917;50.014;8.352;2023-05-16T11:22:07;13.10;99.90
28761;DHT22;15917;50.014;8.352;2023-05-16T11:24:34;13.20;99.90
28761;DHT22;15917;50.014;8.352;2023-05-16T11:27:01;13.30;99.90
28761;DHT22;15917;50.014;8.352;2023-05-16T11:29:31;13.30;99.90
28761;DHT22;15917;50.014;8.352;2023-05-16T11:31:59;13.40;99.90
28761;DHT22;15917;50.014;8.352;2023-05-16T11:34:25;13.50;99.90
28761;DHT22;15917;50.014;8.352;2023-05-16T11:36:51;13.60;99.90
28761;DHT22;15917;50.014;8.352;2023-05-16T11:39:17;13.80;99.90
28761;DHT22;15917;50.014;8.352;2023-05-16T11:41:45;13.90;99.90
28761;DHT22;15917;50.014;8.352;2023-05-16T11:44:11;13.90;99.90
28761;DHT22;15917;50.014;8.352;2023-05-16T11:46:40;14.00;99.90
28761;DHT22;15917;50.014;8.352;2023-05-16T11:49:08;14.20;99.90
28761;DHT22;15917;50.014;8.352;2023-05-16T11:51:41;14.40;99.90
28761;DHT22;15917;50.014;8.352;2023-05-16T11:54:11;14.60;99.90
28761;DHT22;15917;50.014;8.352;2023-05-16T11:56:38;14.80;99.90
28761;DHT22;15917;50.014;8.352;2023-05-16T11:59:05;15.00;99.90
28761;DHT22;15917;50.014;8.352;2023-05-16T12:01:38;15.20;99.90
28761;DHT22;15917;50.014;8.352;2023-05-16T12:04:12;15.50;99.90
28761;DHT22;15917;50.014;8.352;2023-05-16T12:06:39;15.90;99.90
28761;DHT22;15917;50.014;8.352;2023-05-16T12:09:06;16.00;99.90
28761;DHT22;15917;50.014;8.352;2023-05-16T12:11:40;16.20;99.90
28761;DHT22;15917;50.014;8.352;2023-05-16T12:14:07;16.10;99.90
28761;DHT22;15917;50.014;8.352;2023-05-16T12:16:35;16.30;99.90
28761;DHT22;15917;50.014;8.352;2023-05-16T12:19:05;16.70;99.90
28761;DHT22;15917;50.014;8.352;2023-05-16T12:21:31;17.20;99.90
28761;DHT22;15917;50.014;8.352;2023-05-16T12:23:57;17.30;99.90
28761;DHT22;15917;50.014;8.352;2023-05-16T12:26:28;17.50;99.90
28761;DHT22;15917;50.014;8.352;2023-05-16T12:29:02;17.80;99.90
28761;DHT22;15917;50.014;8.352;2023-05-16T12:31:35;17.90;99.90
28761;DHT22;15917;50.014;8.352;2023-05-16T12:34:01;17.80;99.90
28761;DHT22;15917;50.014;8.352;2023-05-16T12:36:31;17.70;99.90
28761;DHT22;15917;50.014;8.352;2023-05-16T12:39:04;17.60;99.90
28761;DHT22;15917;50.014;8.352;2023-05-16T12:41:30;17.70;99.90
28761;DHT22;15917;50.014;8.352;2023-05-16T12:44:15;17.90;99.90
28761;DHT22;15917;50.014;8.352;2023-05-16T12:46:43;18.10;99.90
28761;DHT22;15917;50.014;8.352;2023-05-16T12:49:09;18.40;99.90
28761;DHT22;15917;50.014;8.352;2023-05-16T12:51:35;18.10;99.70
28761;DHT22;15917;50.014;8.352;2023-05-16T12:54:09;18.20;99.30
28761;DHT22;15917;50.014;8.352;2023-05-16T12:56:39;18.40;98.70
28761;DHT22;15917;50.014;8.352;2023-05-16T12:59:05;18.50;99.90
28761;DHT22;15917;50.014;8.352;2023-05-16T13:01:32;18.30;98.40
28761;DHT22;15917;50.014;8.352;2023-05-16T13:03:57;18.40;99.30
28761;DHT22;15917;50.014;8.352;2023-05-16T13:06:24;18.50;97.20
28761;DHT22;15917;50.014;8.352;2023-05-16T13:08:49;18.40;96.60
28761;DHT22;15917;50.014;8.352;2023-05-16T13:11:15;18.50;96.70
28761;DHT22;15917;50.014;8.352;2023-05-16T13:13:40;18.60;96.30
28761;DHT22;15917;50.014;8.352;2023-05-16T13:16:06;18.70;96.30
28761;DHT22;15917;50.014;8.352;2023-05-16T13:18:31;18.70;96.80
28761;DHT22;15917;50.014;8.352;2023-05-16T13:20:58;18.90;96.30
28761;DHT22;15917;50.014;8.352;2023-05-16T13:23:24;19.10;95.90
28761;DHT22;15917;50.014;8.352;2023-05-16T13:25:51;19.10;94.40
28761;DHT22;15917;50.014;8.352;2023-05-16T13:28:17;19.10;95.00
28761;DHT22;15917;50.014;8.352;2023-05-16T13:30:43;19.10;94.60
28761;DHT22;15917;50.014;8.352;2023-05-16T13:33:08;19.10;93.80
28761;DHT22;15917;50.014;8.352;2023-05-16T13:35:34;19.10;93.10
28761;DHT22;15917;50.014;8.352;2023-05-16T13:37:59;19.10;94.00
28761;DHT22;15917;50.014;8.352;2023-05-16T13:40:25;19.30;93.40
28761;DHT22;15917;50.014;8.352;2023-05-16T13:42:52;19.00;93.20
28761;DHT22;15917;50.014;8.352;2023-05-16T13:45:17;18.50;94.00
28761;DHT22;15917;50.014;8.352;2023-05-16T13:47:43;18.50;95.40
28761;DHT22;15917;50.014;8.352;2023-05-16T13:50:08;18.90;95.00
28761;DHT22;15917;50.014;8.352;2023-05-16T13:52:35;18.80;94.20
28761;DHT22;15917;50.014;8.352;2023-05-16T13:55:02;18.60;94.10
28761;DHT22;15917;50.014;8.352;2023-05-16T13:57:28;18.10;93.10
28761;DHT22;15917;50.014;8.352;2023-05-16T13:59:53;18.10;94.30
28761;DHT22;15917;50.014;8.352;2023-05-16T14:02:19;18.40;94.50
28761;DHT22;15917;50.014;8.352;2023-05-16T14:04:45;18.80;93.10
28761;DHT22;15917;50.014;8.352;2023-05-16T14:07:11;19.20;93.30
28761;DHT22;15917;50.014;8.352;2023-05-16T14:09:36;19.10;92.20
28761;DHT22;15917;50.014;8.352;2023-05-16T14:12:07;18.80;92.00
28761;DHT22;15917;50.014;8.352;2023-05-16T14:14:33;18.90;94.80
28761;DHT22;15917;50.014;8.352;2023-05-16T14:17:00;18.90;93.80
28761;DHT22;15917;50.014;8.352;2023-05-16T14:19:26;18.80;93.00
28761;DHT22;15917;50.014;8.352;2023-05-16T14:21:51;18.60;93.40
28761;DHT22;15917;50.014;8.352;2023-05-16T14:24:17;18.30;93.60
28761;DHT22;15917;50.014;8.352;2023-05-16T14:26:43;17.90;93.10
28761;DHT22;15917;50.014;8.352;2023-05-16T14:29:08;17.70;93.80
28761;DHT22;15917;50.014;8.352;2023-05-16T14:31:34;18.20;93.00
28761;DHT22;15917;50.014;8.352;2023-05-16T14:34:03;18.40;92.10
28761;DHT22;15917;50.014;8.352;2023-05-16T14:36:28;18.60;92.10
28761;DHT22;15917;50.014;8.352;2023-05-16T14:38:54;18.60;91.50
28761;DHT22;15917;50.014;8.352;2023-05-16T14:41:20;18.30;93.10
28761;DHT22;15917;50.014;8.352;2023-05-16T14:43:47;18.40;92.60
28761;DHT22;15917;50.014;8.352;2023-05-16T14:46:12;18.10;93.10
28761;DHT22;15917;50.014;8.352;2023-05-16T14:48:38;18.00;92.00
28761;DHT22;15917;50.014;8.352;2023-05-16T14:51:04;18.20;91.60
28761;DHT22;15917;50.014;8.352;2023-05-16T14:53:30;18.50;91.60
28761;DHT22;15917;50.014;8.352;2023-05-16T14:55:56;18.60;91.20
28761;DHT22;15917;50.014;8.352;2023-05-16T14:58:22;18.80;91.20
28761;DHT22;15917;50.014;8.352;2023-05-16T15:00:48;18.70;91.10
28761;DHT22;15917;50.014;8.352;2023-05-16T15:03:16;18.90;91.20
28761;DHT22;15917;50.014;8.352;2023-05-16T15:05:42;19.00;90.90
28761;DHT22;15917;50.014;8.352;2023-05-16T15:08:08;19.00;90.60
28761;DHT22;15917;50.014;8.352;2023-05-16T15:10:34;19.00;90.60
28761;DHT22;15917;50.014;8.352;2023-05-16T15:13:00;19.20;90.30
28761;DHT22;15917;50.014;8.352;2023-05-16T15:15:26;19.30;89.30
28761;DHT22;15917;50.014;8.352;2023-05-16T15:17:51;19.60;88.90
28761;DHT22;15917;50.014;8.352;2023-05-16T15:20:18;19.40;87.80
28761;DHT22;15917;50.014;8.352;2023-05-16T15:22:43;19.00;89.60
28761;DHT22;15917;50.014;8.352;2023-05-16T15:25:09;18.40;89.80
28761;DHT22;15917;50.014;8.352;2023-05-16T15:27:35;18.00;90.80
28761;DHT22;15917;50.014;8.352;2023-05-16T15:30:01;17.70;91.40
28761;DHT22;15917;50.014;8.352;2023-05-16T15:32:26;17.90;91.30
28761;DHT22;15917;50.014;8.352;2023-05-16T15:34:52;17.90;90.30
28761;DHT22;15917;50.014;8.352;2023-05-16T15:37:18;17.90;90.40
28761;DHT22;15917;50.014;8.352;2023-05-16T15:39:43;17.80;90.30
28761;DHT22;15917;50.014;8.352;2023-05-16T15:42:09;17.70;90.30
28761;DHT22;15917;50.014;8.352;2023-05-16T15:44:35;17.60;90.00
28761;DHT22;15917;50.014;8.352;2023-05-16T15:47:01;17.80;90.20
28761;DHT22;15917;50.014;8.352;2023-05-16T15:49:27;18.10;89.00
28761;DHT22;15917;50.014;8.352;2023-05-16T15:51:52;18.20;87.80
28761;DHT22;15917;50.014;8.352;2023-05-16T15:54:18;18.30;88.50
28761;DHT22;15917;50.014;8.352;2023-05-16T15:56:44;18.30;90.80